createdAt,value
2017-05-14T00:01:49.209Z,10.10
2017-05-14T00:04:17.432Z,10.46
2017-05-14T00:06:44.873Z,10.48
2017-05-14T00:09:12.320Z,10.70
2017-05-14T00:11:39.826Z,10.82
2017-05-14T00:14:07.318Z,11.00
2017-05-14T00:16:34.764Z,9.88
2017-05-14T00:19:02.202Z,10.76
2017-05-14T00:21:29.618Z,11.24
2017-05-14T00:23:57.808Z,10.62
2017-05-14T00:26:26.233Z,10.90
2017-05-14T00:28:53.652Z,10.52
2017-05-14T00:31:21.109Z,10.26
2017-05-14T00:33:48.549Z,10.02
2017-05-14T00:36:16.794Z,10.68
2017-05-14T00:38:44.107Z,10.78
2017-05-14T00:41:11.563Z,11.06
2017-05-14T00:43:38.920Z,11.30
2017-05-14T00:46:06.288Z,10.94
2017-05-14T00:48:33.801Z,11.04
2017-05-14T00:51:01.238Z,11.46
2017-05-14T00:53:28.653Z,10.78
2017-05-14T00:55:56.269Z,11.64
2017-05-14T00:58:23.692Z,12.98
2017-05-14T01:00:51.133Z,11.08
2017-05-14T01:03:18.473Z,11.66
2017-05-14T01:05:45.941Z,10.94
2017-05-14T01:08:13.423Z,11.42
2017-05-14T01:10:40.885Z,10.66
2017-05-14T01:13:08.329Z,11.02
2017-05-14T01:15:35.764Z,10.54
2017-05-14T01:18:03.152Z,10.96
2017-05-14T01:20:30.615Z,10.58
2017-05-14T01:22:58.167Z,10.20
2017-05-14T01:25:25.598Z,10.58
2017-05-14T01:27:53.791Z,11.34
2017-05-14T01:30:21.311Z,11.56
2017-05-14T01:32:48.778Z,10.88
2017-05-14T01:35:16.434Z,10.30
2017-05-14T01:37:44.660Z,10.76
2017-05-14T01:40:12.098Z,10.88
2017-05-14T01:42:39.545Z,11.20
2017-05-14T01:45:06.978Z,9.94
2017-05-14T01:47:34.433Z,10.42
2017-05-14T01:50:01.865Z,9.92
2017-05-14T01:52:29.049Z,11.40
2017-05-14T01:54:56.301Z,11.32
2017-05-14T01:57:23.773Z,11.28
2017-05-14T01:59:51.036Z,12.00
2017-05-14T02:02:18.239Z,10.52
2017-05-14T02:04:46.176Z,12.00
2017-05-14T02:07:13.430Z,10.24
2017-05-14T02:09:41.671Z,11.18
2017-05-14T02:12:08.872Z,12.68
2017-05-14T02:14:36.115Z,12.13
2017-05-14T02:17:04.070Z,11.48
2017-05-14T02:19:31.266Z,11.68
2017-05-14T02:21:58.844Z,12.45
2017-05-14T02:24:26.039Z,12.86
2017-05-14T02:26:53.309Z,11.24
2017-05-14T02:29:20.583Z,11.88
2017-05-14T02:31:48.168Z,12.60
2017-05-14T02:34:15.390Z,12.52
2017-05-14T02:36:42.601Z,12.64
2017-05-14T02:39:09.909Z,12.56
2017-05-14T02:41:37.114Z,12.58
2017-05-14T02:44:04.314Z,10.72
2017-05-14T02:46:31.626Z,12.33
2017-05-14T02:48:58.877Z,13.76
2017-05-14T02:51:26.109Z,13.65
2017-05-14T02:53:53.309Z,13.74
2017-05-14T02:56:21.293Z,14.68
2017-05-14T02:58:48.532Z,15.04
2017-05-14T03:01:16.497Z,14.72
2017-05-14T03:03:44.496Z,14.52
2017-05-14T03:06:11.840Z,15.35
2017-05-14T03:08:39.073Z,14.84
2017-05-14T03:11:06.335Z,14.70
2017-05-14T03:13:33.572Z,15.12
2017-05-14T03:16:01.510Z,14.86
2017-05-14T03:18:28.720Z,15.00
2017-05-14T03:20:55.954Z,13.66
2017-05-14T03:23:23.181Z,14.24
2017-05-14T03:25:51.170Z,13.98
2017-05-14T03:28:18.559Z,13.77
2017-05-14T03:30:45.797Z,14.37
2017-05-14T03:33:13.028Z,14.10
2017-05-14T03:35:40.355Z,14.18
2017-05-14T03:38:07.588Z,13.93
2017-05-14T03:40:34.784Z,14.88
2017-05-14T03:43:02.009Z,15.08
2017-05-14T03:45:29.214Z,14.35
2017-05-14T03:47:56.414Z,13.68
2017-05-14T03:50:24.336Z,15.13
2017-05-14T03:52:51.553Z,15.35
2017-05-14T03:55:19.513Z,16.05
2017-05-14T03:57:48.078Z,15.20
2017-05-14T04:00:15.350Z,15.33
2017-05-14T04:02:42.674Z,14.93
2017-05-14T04:05:09.865Z,15.32
2017-05-14T04:07:37.195Z,16.38
2017-05-14T04:10:04.406Z,14.82
2017-05-14T04:12:32.357Z,14.47
2017-05-14T04:14:59.624Z,14.88
2017-05-14T04:17:27.568Z,15.98
2017-05-14T04:19:55.786Z,15.07
2017-05-14T04:22:23.877Z,15.05
2017-05-14T04:24:51.126Z,14.82
2017-05-14T04:27:18.341Z,14.65
2017-05-14T04:29:45.592Z,15.38
2017-05-14T04:32:13.034Z,14.53
2017-05-14T04:34:40.557Z,14.48
2017-05-14T04:37:11.164Z,15.38
2017-05-14T04:39:38.697Z,15.55
2017-05-14T04:42:06.086Z,14.23
2017-05-14T04:44:33.565Z,14.82
2017-05-14T04:47:02.169Z,16.05
2017-05-14T04:49:30.323Z,16.07
2017-05-14T04:51:57.876Z,15.55
2017-05-14T04:54:25.388Z,16.27
2017-05-14T04:56:53.284Z,15.52
2017-05-14T04:59:21.235Z,17.87
2017-05-14T05:01:48.718Z,17.75
2017-05-14T05:04:16.089Z,18.78
2017-05-14T05:06:43.548Z,17.13
2017-05-14T05:09:11.073Z,16.05
2017-05-14T05:11:38.441Z,18.87
2017-05-14T05:14:05.913Z,18.65
2017-05-14T05:16:33.438Z,18.82
2017-05-14T05:19:00.884Z,17.38
2017-05-14T05:21:28.484Z,16.73
2017-05-14T05:23:55.850Z,18.10
2017-05-14T05:26:23.316Z,19.23
2017-05-14T05:28:51.656Z,17.67
2017-05-14T05:31:19.217Z,17.58
2017-05-14T05:33:46.673Z,17.86
2017-05-14T05:36:14.137Z,18.27
2017-05-14T05:38:41.629Z,17.08
2017-05-14T05:41:09.076Z,17.25
2017-05-14T05:43:36.422Z,17.68
2017-05-14T05:46:04.633Z,16.62
2017-05-14T05:48:32.081Z,17.42
2017-05-14T05:50:59.539Z,16.22
2017-05-14T05:53:27.049Z,16.08
2017-05-14T05:55:54.463Z,16.38
2017-05-14T05:58:21.986Z,15.46
2017-05-14T06:00:50.294Z,15.42
2017-05-14T06:03:17.836Z,14.12
2017-05-14T06:05:45.298Z,15.70
2017-05-14T06:08:13.529Z,13.52
2017-05-14T06:10:41.692Z,13.42
2017-05-14T06:13:09.996Z,13.90
2017-05-14T06:15:37.381Z,13.80
2017-05-14T06:18:04.686Z,13.62
2017-05-14T06:20:32.604Z,12.90
2017-05-14T06:23:00.814Z,12.60
2017-05-14T06:25:28.184Z,13.70
2017-05-14T06:27:55.644Z,13.82
2017-05-14T06:30:23.221Z,13.36
2017-05-14T06:32:51.511Z,12.36
2017-05-14T06:35:18.929Z,13.96
2017-05-14T06:37:47.124Z,13.40
2017-05-14T06:40:14.567Z,12.52
2017-05-14T06:42:42.119Z,11.82
2017-05-14T06:45:09.572Z,12.58
2017-05-14T06:47:37.997Z,12.34
2017-05-14T06:50:05.441Z,10.44
2017-05-14T06:52:33.638Z,9.78
2017-05-14T06:55:00.982Z,8.90
2017-05-14T06:57:28.531Z,8.50
2017-05-14T06:59:55.999Z,9.02
2017-05-14T07:02:23.471Z,8.48
2017-05-14T07:04:51.325Z,8.00
2017-05-14T07:07:18.768Z,7.64
2017-05-14T07:09:46.279Z,7.58
2017-05-14T07:12:13.721Z,8.14
2017-05-14T07:14:41.217Z,7.88
2017-05-14T07:17:09.114Z,7.66
2017-05-14T07:19:37.401Z,7.42
2017-05-14T07:22:05.020Z,7.80
2017-05-14T07:24:33.390Z,8.14
2017-05-14T07:27:00.794Z,8.18
2017-05-14T07:29:28.526Z,8.44
2017-05-14T07:31:55.800Z,8.06
2017-05-14T07:34:23.241Z,7.06
2017-05-14T07:36:51.333Z,6.44
2017-05-14T07:39:18.721Z,6.62
2017-05-14T07:41:46.109Z,6.86
2017-05-14T07:44:13.572Z,6.56
2017-05-14T07:46:41.665Z,7.06
2017-05-14T07:49:09.097Z,6.48
2017-05-14T07:51:36.602Z,6.34
2017-05-14T07:54:04.049Z,6.68
2017-05-14T07:56:31.705Z,6.04
2017-05-14T07:58:59.241Z,6.10
2017-05-14T08:01:26.746Z,6.22
2017-05-14T08:03:54.176Z,5.16
2017-05-14T08:06:21.600Z,4.78
2017-05-14T08:08:49.821Z,4.56
2017-05-14T08:11:17.681Z,5.00
2017-05-14T08:13:45.890Z,5.06
2017-05-14T08:16:13.147Z,4.82
2017-05-14T08:18:40.375Z,4.88
2017-05-14T08:21:08.056Z,4.52
2017-05-14T08:23:36.691Z,4.78
2017-05-14T08:26:04.662Z,4.38
2017-05-14T08:28:31.906Z,4.52
2017-05-14T08:30:59.236Z,4.06
2017-05-14T08:33:26.454Z,3.52
2017-05-14T08:35:54.469Z,3.44
2017-05-14T08:38:21.776Z,3.76
2017-05-14T08:40:49.009Z,3.42
2017-05-14T08:43:16.314Z,3.52
2017-05-14T08:45:44.602Z,3.86
2017-05-14T08:48:12.548Z,4.54
2017-05-14T08:50:39.766Z,4.52
2017-05-14T08:53:06.989Z,4.32
2017-05-14T08:55:34.613Z,4.20
2017-05-14T08:58:01.888Z,4.42
2017-05-14T09:00:29.180Z,4.10
2017-05-14T09:02:56.396Z,4.28
2017-05-14T09:05:40.300Z,4.26
2017-05-14T09:08:07.692Z,4.40
2017-05-14T09:10:34.930Z,4.56
2017-05-14T09:13:02.148Z,5.10
2017-05-14T09:15:29.438Z,4.98
2017-05-14T09:17:56.751Z,4.90
2017-05-14T09:20:24.022Z,4.84
2017-05-14T09:22:51.219Z,4.46
2017-05-14T09:25:18.469Z,5.02
2017-05-14T09:27:51.834Z,4.66
2017-05-14T09:30:19.048Z,4.90
2017-05-14T09:32:47.018Z,4.66
2017-05-14T09:35:14.265Z,4.22
2017-05-14T09:37:41.482Z,4.08
2017-05-14T09:40:08.733Z,4.44
2017-05-14T09:42:35.924Z,3.84
2017-05-14T09:45:09.861Z,4.00
2017-05-14T09:47:37.096Z,4.70
2017-05-14T09:50:04.455Z,4.68
2017-05-14T09:52:31.696Z,3.92
2017-05-14T09:54:59.666Z,3.66
2017-05-14T09:57:26.856Z,4.88
2017-05-14T09:59:54.263Z,3.76
2017-05-14T10:02:21.460Z,4.38
2017-05-14T10:04:52.233Z,4.64
2017-05-14T10:07:39.167Z,4.20
2017-05-14T10:10:19.911Z,4.04
2017-05-14T10:13:11.972Z,4.52
2017-05-14T10:15:39.791Z,4.40
2017-05-14T10:18:07.252Z,4.32
2017-05-14T10:20:34.702Z,4.12
2017-05-14T10:23:06.264Z,4.60
2017-05-14T10:25:34.413Z,3.72
2017-05-14T10:28:01.873Z,3.56
2017-05-14T10:30:29.310Z,3.48
2017-05-14T10:32:57.994Z,3.54
2017-05-14T10:35:25.364Z,4.04
2017-05-14T10:37:52.766Z,4.08
2017-05-14T10:40:20.252Z,3.28
2017-05-14T10:42:48.524Z,4.16
2017-05-14T10:45:15.888Z,4.56
2017-05-14T10:47:43.308Z,4.10
2017-05-14T10:50:10.728Z,4.40
2017-05-14T10:52:45.078Z,3.82
2017-05-14T10:55:12.517Z,4.38
2017-05-14T10:57:39.934Z,4.56
2017-05-14T11:00:07.461Z,4.34
2017-05-14T11:02:34.998Z,4.52
2017-05-14T11:05:09.339Z,4.02
2017-05-14T11:07:36.767Z,4.14
2017-05-14T11:10:04.212Z,4.16
2017-05-14T11:12:31.552Z,4.40
2017-05-14T11:17:43.677Z,3.80
2017-05-14T11:20:11.214Z,4.30
2017-05-14T11:22:39.593Z,3.98
2017-05-14T11:25:07.014Z,3.46
2017-05-14T11:27:40.573Z,3.82
2017-05-14T11:30:08.000Z,3.16
2017-05-14T11:32:35.477Z,3.30
2017-05-14T11:35:04.429Z,3.40
2017-05-14T11:37:31.928Z,3.54
2017-05-14T11:40:00.185Z,2.72
2017-05-14T11:42:28.830Z,2.46
2017-05-14T11:44:56.244Z,2.58
2017-05-14T11:47:23.629Z,2.98
2017-05-14T11:49:51.106Z,2.30
2017-05-14T11:52:18.651Z,2.38
2017-05-14T11:54:46.753Z,3.04
2017-05-14T11:57:14.294Z,2.98
2017-05-14T11:59:41.823Z,3.32
2017-05-14T12:02:10.513Z,2.66
2017-05-14T12:04:37.993Z,2.84
2017-05-14T12:07:05.435Z,2.92
2017-05-14T12:09:32.723Z,3.30
2017-05-14T12:12:00.091Z,3.74
2017-05-14T12:14:27.603Z,3.08
2017-05-14T12:16:55.085Z,3.86
2017-05-14T12:19:22.562Z,3.96
2017-05-14T12:21:50.620Z,2.88
2017-05-14T12:24:17.982Z,3.22
2017-05-14T12:26:45.572Z,3.30
2017-05-14T12:29:13.699Z,3.50
2017-05-14T12:31:41.305Z,4.28
2017-05-14T12:34:08.877Z,3.28
2017-05-14T12:36:36.236Z,3.30
2017-05-14T12:39:03.766Z,4.00
2017-05-14T12:41:31.186Z,3.32
2017-05-14T12:43:59.164Z,3.30
2017-05-14T12:46:26.623Z,2.66
2017-05-14T12:48:54.127Z,4.68
2017-05-14T12:51:21.578Z,2.90
2017-05-14T12:53:49.033Z,2.74
2017-05-14T12:56:16.476Z,2.64
2017-05-14T12:58:43.929Z,2.72
2017-05-14T13:01:11.353Z,2.38
2017-05-14T13:03:38.871Z,2.82
2017-05-14T13:06:06.307Z,3.00
2017-05-14T13:08:37.320Z,2.60
2017-05-14T13:11:04.721Z,2.30
2017-05-14T13:13:32.171Z,2.34
2017-05-14T13:16:00.764Z,2.20
2017-05-14T13:18:28.834Z,2.90
2017-05-14T13:21:03.185Z,2.38
2017-05-14T13:23:30.393Z,2.60
2017-05-14T13:25:57.714Z,2.46
2017-05-14T13:28:26.725Z,2.46
2017-05-14T13:30:54.096Z,3.24
2017-05-14T13:33:21.309Z,2.46
2017-05-14T13:35:48.557Z,2.44
2017-05-14T13:38:15.751Z,2.86
2017-05-14T13:40:43.982Z,2.96
2017-05-14T13:43:11.175Z,3.02
2017-05-14T13:45:38.397Z,3.32
2017-05-14T13:48:05.640Z,3.28
2017-05-14T13:50:32.825Z,2.98
2017-05-14T13:53:00.037Z,3.06
2017-05-14T13:55:27.240Z,3.40
2017-05-14T13:57:54.560Z,3.20
2017-05-14T14:00:21.831Z,2.98
2017-05-14T14:02:49.698Z,3.58
2017-05-14T14:05:16.905Z,3.70
2017-05-14T14:07:44.163Z,3.22
2017-05-14T14:10:11.690Z,3.02
2017-05-14T14:12:39.178Z,3.26
2017-05-14T14:15:06.557Z,3.16
2017-05-14T14:17:33.969Z,2.90
2017-05-14T14:20:02.427Z,2.68
2017-05-14T14:22:29.665Z,2.32
2017-05-14T14:24:57.105Z,2.34
2017-05-14T14:27:24.372Z,2.28
2017-05-14T14:29:51.797Z,2.04
2017-05-14T14:32:19.245Z,2.28
2017-05-14T14:34:46.677Z,2.28
2017-05-14T14:37:14.109Z,2.22
2017-05-14T14:39:41.477Z,2.54
2017-05-14T14:42:08.916Z,2.50
2017-05-14T14:44:36.347Z,2.98
2017-05-14T14:47:03.706Z,2.52
2017-05-14T14:49:31.184Z,2.94
2017-05-14T14:51:59.509Z,2.80
2017-05-14T14:54:27.040Z,2.80
2017-05-14T14:56:54.484Z,2.78
2017-05-14T14:59:21.893Z,2.68
2017-05-14T15:01:49.213Z,3.04
2017-05-14T15:04:16.856Z,2.70
2017-05-14T15:06:45.070Z,3.68
2017-05-14T15:09:13.672Z,4.84
2017-05-14T15:11:41.173Z,3.12
2017-05-14T15:14:08.697Z,3.46
2017-05-14T15:16:36.553Z,3.38
2017-05-14T15:19:04.753Z,3.18
2017-05-14T15:21:32.189Z,2.90
2017-05-14T15:23:59.822Z,3.52
2017-05-14T15:26:27.265Z,3.10
2017-05-14T15:28:54.740Z,1.86
2017-05-14T15:31:22.097Z,1.86
2017-05-14T15:33:50.240Z,1.94
2017-05-14T15:36:17.675Z,3.22
2017-05-14T15:38:45.119Z,2.60
2017-05-14T15:41:12.558Z,2.28
2017-05-14T15:43:41.710Z,2.80
2017-05-14T15:46:09.150Z,4.52
2017-05-14T15:48:36.644Z,3.86
2017-05-14T15:51:04.307Z,2.08
2017-05-14T15:53:32.572Z,2.34
2017-05-14T15:56:00.141Z,3.86
2017-05-14T15:58:28.304Z,4.74
2017-05-14T16:00:55.744Z,3.62
2017-05-14T16:03:23.179Z,3.58
2017-05-14T16:05:51.164Z,2.20
2017-05-14T16:08:18.373Z,2.52
2017-05-14T16:10:46.360Z,2.32
2017-05-14T16:13:13.561Z,2.56
2017-05-14T16:15:40.766Z,1.70
2017-05-14T16:18:07.977Z,1.90
2017-05-14T16:20:35.346Z,2.18
2017-05-14T16:23:02.747Z,2.28
2017-05-14T16:25:30.215Z,2.38
2017-05-14T16:27:57.589Z,2.42
2017-05-14T16:30:25.104Z,2.50
2017-05-14T16:32:52.521Z,2.60
2017-05-14T16:35:19.884Z,2.30
2017-05-14T16:37:47.328Z,2.40
2017-05-14T16:40:14.767Z,2.34
2017-05-14T16:42:42.113Z,2.40
2017-05-14T16:45:09.579Z,2.42
2017-05-14T16:47:37.060Z,2.30
2017-05-14T16:50:04.523Z,2.42
2017-05-14T16:52:32.044Z,2.08
2017-05-14T16:54:59.622Z,1.62
2017-05-14T16:57:27.092Z,1.20
2017-05-14T16:59:54.550Z,1.08
2017-05-14T17:02:22.173Z,1.18
2017-05-14T17:04:49.512Z,3.58
2017-05-14T17:07:17.695Z,2.44
2017-05-14T17:09:45.173Z,1.66
2017-05-14T17:12:12.614Z,1.70
2017-05-14T17:14:40.102Z,1.44
2017-05-14T17:17:07.689Z,1.30
2017-05-14T17:19:35.903Z,1.36
2017-05-14T17:22:03.407Z,1.30
2017-05-14T17:24:31.011Z,1.44
2017-05-14T17:26:58.997Z,1.46
2017-05-14T17:29:26.317Z,1.58
2017-05-14T17:31:53.921Z,1.10
2017-05-14T17:34:21.146Z,1.80
2017-05-14T17:36:49.113Z,1.00
2017-05-14T17:39:16.386Z,1.20
2017-05-14T17:41:43.658Z,1.00
2017-05-14T17:44:10.924Z,1.20
2017-05-14T17:46:38.227Z,1.36
2017-05-14T17:49:05.441Z,1.10
2017-05-14T17:51:32.922Z,1.12
2017-05-14T17:54:00.324Z,1.00
2017-05-14T17:56:27.877Z,0.92
2017-05-14T17:58:55.336Z,0.80
2017-05-14T18:01:22.708Z,0.86
2017-05-14T18:03:50.181Z,1.26
2017-05-14T18:06:17.538Z,2.18
2017-05-14T18:08:45.019Z,1.00
2017-05-14T18:11:12.483Z,1.08
2017-05-14T18:13:39.958Z,0.70
2017-05-14T18:16:08.632Z,0.98
2017-05-14T18:18:36.131Z,0.78
2017-05-14T18:21:03.367Z,0.86
2017-05-14T18:23:30.811Z,1.12
2017-05-14T18:25:58.422Z,1.10
2017-05-14T18:28:26.720Z,1.26
2017-05-14T18:30:54.176Z,1.00
2017-05-14T18:33:22.576Z,1.82
2017-05-14T18:35:51.464Z,0.92
2017-05-14T18:38:18.740Z,1.30
2017-05-14T18:40:46.187Z,1.16
2017-05-14T18:43:19.384Z,1.06
2017-05-14T18:45:46.869Z,1.30
2017-05-14T18:48:14.468Z,1.40
2017-05-14T18:50:41.968Z,1.36
2017-05-14T18:53:09.428Z,1.46
2017-05-14T18:55:37.004Z,1.38
2017-05-14T18:58:04.426Z,1.26
2017-05-14T19:00:31.889Z,1.06
2017-05-14T19:02:59.692Z,1.30
2017-05-14T19:05:27.211Z,1.10
2017-05-14T19:07:54.662Z,1.36
2017-05-14T19:10:22.508Z,1.24
2017-05-14T19:12:49.970Z,1.24
2017-05-14T19:15:17.509Z,1.46
2017-05-14T19:17:46.049Z,1.30
2017-05-14T19:20:13.321Z,1.10
2017-05-14T19:22:41.279Z,1.20
2017-05-14T19:25:08.514Z,1.32
2017-05-14T19:27:35.720Z,1.30
2017-05-14T19:30:03.188Z,1.22
2017-05-14T19:32:30.700Z,1.48
2017-05-14T19:34:58.629Z,1.68
2017-05-14T19:37:26.223Z,1.60
2017-05-14T19:39:53.868Z,1.78
2017-05-14T19:42:23.200Z,2.22
2017-05-14T19:44:50.574Z,2.78
2017-05-14T19:47:18.898Z,2.84
2017-05-14T19:49:46.116Z,2.60
2017-05-14T19:52:13.317Z,3.02
2017-05-14T19:54:41.272Z,4.92
2017-05-14T19:57:09.221Z,3.20
2017-05-14T19:59:36.500Z,4.36
2017-05-14T20:02:04.843Z,5.84
2017-05-14T20:04:32.198Z,4.62
2017-05-14T20:06:59.716Z,5.32
2017-05-14T20:09:27.157Z,5.92
2017-05-14T20:11:54.608Z,5.72
2017-05-14T20:14:22.052Z,5.90
2017-05-14T20:16:49.478Z,7.08
2017-05-14T20:19:17.007Z,6.68
2017-05-14T20:21:44.377Z,6.28
2017-05-14T20:24:11.884Z,6.14
2017-05-14T20:26:39.381Z,6.84
2017-05-14T20:29:10.765Z,7.24
2017-05-14T20:31:37.981Z,7.12
2017-05-14T20:34:05.236Z,7.22
2017-05-14T20:36:32.491Z,8.18
2017-05-14T20:38:59.722Z,7.86
2017-05-14T20:41:26.942Z,8.10
2017-05-14T20:43:54.402Z,6.74
2017-05-14T20:46:21.915Z,7.58
2017-05-14T20:48:49.421Z,7.78
2017-05-14T20:51:16.741Z,7.78
2017-05-14T20:53:44.280Z,8.18
2017-05-14T20:56:11.810Z,7.60
2017-05-14T20:58:39.261Z,8.60
2017-05-14T21:01:06.674Z,8.84
2017-05-14T21:03:34.377Z,8.04
2017-05-14T21:06:02.301Z,9.40
2017-05-14T21:08:29.801Z,10.38
2017-05-14T21:10:57.143Z,8.90
2017-05-14T21:13:24.657Z,8.90
2017-05-14T21:15:52.128Z,9.12
2017-05-14T21:18:19.593Z,10.10
2017-05-14T21:20:47.037Z,9.44
2017-05-14T21:23:14.480Z,9.02
2017-05-14T21:25:41.758Z,10.02
2017-05-14T21:28:09.176Z,9.66
2017-05-14T21:30:37.317Z,9.62
2017-05-14T21:33:04.752Z,8.96
2017-05-14T21:35:32.198Z,10.00
2017-05-14T21:37:59.644Z,9.44
2017-05-14T21:40:27.116Z,10.38
2017-05-14T21:42:54.653Z,10.34
2017-05-14T21:45:22.100Z,9.98
2017-05-14T21:47:49.574Z,9.82
2017-05-14T21:50:17.041Z,9.46
2017-05-14T21:52:44.481Z,9.16
2017-05-14T21:55:11.932Z,10.38
2017-05-14T21:57:39.444Z,8.60
2017-05-14T22:00:06.926Z,9.02
2017-05-14T22:02:34.433Z,9.66
2017-05-14T22:05:01.874Z,9.34
2017-05-14T22:07:29.604Z,9.08
2017-05-14T22:10:11.778Z,8.72
2017-05-14T22:12:40.188Z,9.12
2017-05-14T22:15:07.644Z,9.60
2017-05-14T22:17:35.100Z,9.96
2017-05-14T22:20:02.585Z,9.12
2017-05-14T22:22:30.737Z,8.60
2017-05-14T22:24:58.191Z,7.92
2017-05-14T22:27:25.645Z,10.22
2017-05-14T22:29:53.110Z,8.52
2017-05-14T22:32:20.572Z,8.40
2017-05-14T22:34:48.020Z,7.90
2017-05-14T22:37:15.442Z,7.38
2017-05-14T22:39:42.890Z,8.30
2017-05-14T22:42:10.346Z,8.32
2017-05-14T22:44:37.757Z,8.88
2017-05-14T22:47:05.323Z,8.76
2017-05-14T22:49:37.481Z,8.38
2017-05-14T22:52:04.756Z,9.32
2017-05-14T22:54:31.956Z,9.96
2017-05-14T22:56:59.153Z,9.88
2017-05-14T22:59:26.365Z,9.32
2017-05-14T23:01:53.581Z,9.66
2017-05-14T23:04:20.790Z,10.00
2017-05-14T23:06:48.005Z,9.90
2017-05-14T23:09:15.240Z,8.84
2017-05-14T23:11:43.197Z,10.22
2017-05-14T23:14:10.396Z,9.88
2017-05-14T23:16:38.338Z,9.32
2017-05-14T23:19:05.589Z,9.04
2017-05-14T23:21:33.042Z,9.32
2017-05-14T23:24:00.512Z,8.58
2017-05-14T23:26:27.985Z,11.04
2017-05-14T23:28:55.456Z,8.90
2017-05-14T23:31:22.933Z,9.72
2017-05-14T23:33:50.413Z,10.14
2017-05-14T23:36:17.898Z,10.52
2017-05-14T23:38:45.196Z,11.42
2017-05-14T23:41:12.688Z,10.78
2017-05-14T23:43:40.202Z,11.06
2017-05-14T23:46:07.628Z,11.20
2017-05-14T23:48:35.813Z,10.98
2017-05-14T23:51:03.340Z,11.90
2017-05-14T23:53:30.906Z,11.02
2017-05-14T23:55:58.329Z,11.62
2017-05-14T23:58:27.635Z,12.18
